Time;durP1;ratioP1;P1;durP2;ratioP2;P2;SDS_P1;SDS_P2;PMS_P1;PMS_P2;Temp;Humidity;BMP_temperature;BMP_pressure;BME280_temperature;BME280_humidity;BME280_pressure;Samples;Min_cycle;Max_cycle;Signal;HPM_P1;HPM_P2
2022/02/26 00:01:44;;;;;;;63.90;9.05;;;5.00;99.90;;;;;;5045949;28;20033;-60
2022/02/26 00:04:10;;;;;;;64.50;8.25;;;4.90;99.90;;;;;;5042475;28;20386;-53
2022/02/26 00:06:36;;;;;;;58.72;8.23;;;5.00;99.90;;;;;;5039631;28;20100;-53
2022/02/26 00:09:04;;;;;;;51.42;7.97;;;5.00;99.90;;;;;;5038260;28;20025;-58
2022/02/26 00:11:29;;;;;;;58.08;7.70;;;5.00;99.90;;;;;;5048489;28;20105;-58
2022/02/26 00:13:55;;;;;;;68.53;9.57;;;5.00;99.90;;;;;;5044856;28;20120;-59
2022/02/26 00:16:21;;;;;;;49.78;8.23;;;4.90;99.90;;;;;;5042523;28;20021;-60
2022/02/26 00:18:46;;;;;;;56.65;7.47;;;4.90;99.90;;;;;;5043455;28;20116;-61
2022/02/26 00:21:12;;;;;;;70.60;8.73;;;4.90;99.90;;;;;;5042300;28;20025;-59
2022/02/26 00:23:38;;;;;;;68.80;9.30;;;4.90;99.90;;;;;;5038880;28;20034;-59
2022/02/26 00:26:04;;;;;;;71.47;8.95;;;4.90;99.90;;;;;;5048179;28;20095;-57
2022/02/26 00:28:30;;;;;;;52.75;8.27;;;4.90;99.90;;;;;;5047885;28;20552;-57
2022/02/26 00:30:55;;;;;;;54.28;8.10;;;4.90;99.90;;;;;;5030944;28;20436;-59
2022/02/26 00:33:21;;;;;;;64.43;9.20;;;4.80;99.90;;;;;;5047687;28;20087;-60
2022/02/26 00:35:47;;;;;;;61.70;8.93;;;4.80;99.90;;;;;;5047777;28;20037;-62
2022/02/26 00:38:12;;;;;;;53.85;8.15;;;4.80;99.90;;;;;;5041445;28;20547;-61
2022/02/26 00:40:38;;;;;;;74.53;8.77;;;4.80;99.90;;;;;;5044863;28;20120;-62
2022/02/26 00:43:04;;;;;;;73.40;8.55;;;4.70;99.90;;;;;;5040417;28;20029;-60
2022/02/26 00:45:30;;;;;;;78.35;8.27;;;4.70;99.90;;;;;;5039426;28;20034;-61
2022/02/26 00:47:57;;;;;;;59.10;8.68;;;4.70;99.90;;;;;;5046644;28;20086;-60
2022/02/26 00:50:22;;;;;;;85.55;12.05;;;4.70;99.90;;;;;;5029082;28;20487;-59
2022/02/26 00:52:48;;;;;;;66.45;8.18;;;4.70;99.90;;;;;;5049852;28;20048;-61
2022/02/26 00:55:14;;;;;;;59.53;7.53;;;4.70;99.90;;;;;;5045577;28;20037;-59
2022/02/26 00:57:39;;;;;;;79.68;9.52;;;4.60;99.90;;;;;;5046759;28;20029;-60
2022/02/26 01:00:08;;;;;;;83.55;10.23;;;4.60;99.90;;;;;;5046911;28;20033;-61
2022/02/26 01:02:34;;;;;;;74.60;9.10;;;4.60;99.90;;;;;;5051782;28;20032;-60
2022/02/26 01:05:00;;;;;;;66.45;8.52;;;4.60;99.90;;;;;;5046309;28;20052;-59
2022/02/26 01:07:25;;;;;;;73.93;9.63;;;4.60;99.90;;;;;;5046193;28;20040;-59
2022/02/26 01:09:52;;;;;;;70.20;8.82;;;4.60;99.90;;;;;;5050637;28;20495;-61
2022/02/26 01:12:18;;;;;;;66.95;8.57;;;4.50;99.90;;;;;;5034111;28;20025;-60
2022/02/26 01:14:45;;;;;;;61.33;10.23;;;4.50;99.90;;;;;;5031282;28;20032;-60
2022/02/26 01:17:13;;;;;;;60.05;8.18;;;4.50;99.90;;;;;;5043418;28;20029;-61
2022/02/26 01:19:40;;;;;;;81.03;9.57;;;4.50;99.90;;;;;;5050264;28;20045;-60
2022/02/26 01:22:06;;;;;;;65.10;8.40;;;4.40;99.90;;;;;;5051789;28;20134;-60
2022/02/26 01:24:32;;;;;;;83.15;9.18;;;4.50;99.90;;;;;;5047582;28;20862;-60
2022/02/26 01:26:58;;;;;;;70.68;8.45;;;4.50;99.90;;;;;;5043314;28;20056;-60
2022/02/26 01:29:23;;;;;;;61.83;8.32;;;4.50;99.90;;;;;;5050252;28;20029;-60
2022/02/26 01:31:49;;;;;;;73.45;9.70;;;4.40;99.90;;;;;;5028576;28;20033;-59
2022/02/26 01:34:15;;;;;;;76.97;10.32;;;4.40;99.90;;;;;;5032175;28;20040;-58
2022/02/26 01:36:40;;;;;;;78.40;9.77;;;4.30;99.90;;;;;;5049405;28;20568;-60
2022/02/26 01:39:08;;;;;;;77.75;10.18;;;4.30;99.90;;;;;;5051562;28;20029;-60
2022/02/26 01:41:34;;;;;;;67.82;8.63;;;4.30;99.90;;;;;;5050029;28;20059;-59
2022/02/26 01:44:00;;;;;;;59.05;7.45;;;4.30;99.90;;;;;;5051487;28;20024;-60
2022/02/26 01:46:26;;;;;;;79.13;9.43;;;4.40;99.90;;;;;;5050029;28;20544;-59
2022/02/26 01:48:52;;;;;;;70.05;8.80;;;4.40;99.90;;;;;;5050461;28;20090;-60
2022/02/26 01:51:19;;;;;;;70.35;9.55;;;4.30;99.90;;;;;;5032519;28;20450;-59
2022/02/26 01:53:45;;;;;;;62.80;7.80;;;4.30;99.90;;;;;;5050268;28;20491;-61
2022/02/26 01:56:11;;;;;;;64.65;9.68;;;4.20;99.90;;;;;;5040745;28;20051;-60
2022/02/26 01:58:38;;;;;;;74.28;8.20;;;4.20;99.90;;;;;;5050635;28;20040;-59
2022/02/26 02:01:05;;;;;;;74.07;10.93;;;4.20;99.90;;;;;;5040855;28;20029;-59
2022/02/26 02:03:31;;;;;;;72.25;9.15;;;4.20;99.90;;;;;;5050847;28;20057;-61
2022/02/26 02:06:01;;;;;;;78.13;10.38;;;4.20;99.90;;;;;;5041679;28;20147;-60
2022/02/26 02:08:27;;;;;;;72.20;9.57;;;4.20;99.90;;;;;;5045699;28;20039;-60
2022/02/26 02:10:54;;;;;;;70.50;8.45;;;4.10;99.90;;;;;;5049525;28;20415;-60
2022/02/26 02:13:21;;;;;;;80.20;9.70;;;4.10;99.90;;;;;;5050602;28;20033;-58
2022/02/26 02:15:47;;;;;;;53.95;8.80;;;4.20;99.90;;;;;;5040530;28;20041;-55
2022/02/26 02:18:14;;;;;;;75.15;10.32;;;4.10;99.90;;;;;;5050015;28;20478;-60
2022/02/26 02:20:41;;;;;;;84.55;9.82;;;4.10;99.90;;;;;;5048159;28;20040;-57
2022/02/26 02:23:07;;;;;;;65.90;8.68;;;4.10;99.90;;;;;;5050396;28;20017;-61
2022/02/26 02:25:35;;;;;;;61.28;9.05;;;4.10;99.90;;;;;;5045407;28;20016;-60
2022/02/26 02:28:03;;;;;;;71.80;8.88;;;4.00;99.90;;;;;;5031598;28;20024;-61
2022/02/26 02:30:30;;;;;;;66.35;8.55;;;4.00;99.90;;;;;;5041786;28;20026;-60
2022/02/26 02:32:57;;;;;;;60.13;9.57;;;4.00;99.90;;;;;;5032364;28;20056;-59
2022/02/26 02:35:23;;;;;;;70.68;9.95;;;4.00;99.90;;;;;;5042900;28;20026;-60
2022/02/26 02:37:49;;;;;;;72.63;8.77;;;4.00;99.90;;;;;;5038091;28;20033;-60
2022/02/26 02:40:14;;;;;;;78.75;8.95;;;4.00;99.90;;;;;;5049346;28;20031;-60
2022/02/26 02:42:40;;;;;;;74.78;9.70;;;3.90;99.90;;;;;;5049377;28;20029;-61
2022/02/26 02:45:06;;;;;;;58.72;9.32;;;4.00;99.90;;;;;;5048673;28;20040;-61
2022/02/26 02:47:32;;;;;;;61.20;8.00;;;3.90;99.90;;;;;;5048561;28;20024;-61
2022/02/26 02:49:57;;;;;;;63.63;8.27;;;4.00;99.90;;;;;;5049213;28;20029;-59
2022/02/26 02:52:23;;;;;;;69.32;8.70;;;4.00;99.90;;;;;;5050041;28;20135;-59
2022/02/26 02:54:48;;;;;;;80.72;9.70;;;4.00;99.90;;;;;;5046163;28;20067;-61
2022/02/26 02:57:14;;;;;;;68.43;8.95;;;3.90;99.90;;;;;;5042350;28;20033;-59
2022/02/26 02:59:40;;;;;;;76.45;8.50;;;3.90;99.90;;;;;;5048900;28;20390;-60
2022/02/26 03:02:05;;;;;;;69.22;8.35;;;4.00;99.90;;;;;;5049964;28;20017;-61
2022/02/26 03:04:31;;;;;;;71.47;8.50;;;3.90;99.90;;;;;;5048397;28;20034;-61
2022/02/26 03:06:56;;;;;;;71.80;9.45;;;3.90;99.90;;;;;;5048125;28;20407;-59
2022/02/26 03:09:22;;;;;;;54.63;8.82;;;3.90;99.90;;;;;;5048631;28;20036;-58
2022/02/26 03:11:47;;;;;;;65.47;9.65;;;3.90;99.90;;;;;;5031411;28;20033;-58
2022/02/26 03:14:13;;;;;;;53.00;7.78;;;3.90;99.90;;;;;;5044031;28;20030;-60
2022/02/26 03:16:39;;;;;;;65.97;8.20;;;3.90;99.90;;;;;;5027734;28;20063;-55
2022/02/26 03:19:05;;;;;;;66.57;9.52;;;3.90;99.90;;;;;;5048842;28;20069;-58
2022/02/26 03:21:31;;;;;;;52.92;7.53;;;3.80;99.90;;;;;;5049059;28;20513;-62
2022/02/26 03:23:57;;;;;;;79.15;9.35;;;3.80;99.90;;;;;;5030455;28;20064;-61
2022/02/26 03:26:22;;;;;;;69.28;9.68;;;3.80;99.90;;;;;;5048841;28;20505;-59
2022/02/26 03:28:48;;;;;;;73.35;8.70;;;3.80;99.90;;;;;;5047910;28;20044;-60
2022/02/26 03:31:14;;;;;;;61.72;8.85;;;3.90;99.90;;;;;;5049486;28;20068;-59
2022/02/26 03:33:39;;;;;;;72.20;8.65;;;3.80;99.90;;;;;;5047092;28;20501;-60
2022/02/26 03:36:05;;;;;;;61.65;9.13;;;3.80;99.90;;;;;;5048952;28;20060;-61
2022/02/26 03:38:31;;;;;;;69.22;8.90;;;3.80;99.90;;;;;;5047961;28;20112;-62
2022/02/26 03:40:56;;;;;;;62.92;9.38;;;3.70;99.90;;;;;;5049286;28;20053;-63
2022/02/26 03:43:22;;;;;;;87.22;10.25;;;3.70;99.90;;;;;;5048179;28;20021;-63
2022/02/26 03:45:47;;;;;;;64.93;8.75;;;3.70;99.90;;;;;;5047185;28;20033;-61
2022/02/26 03:48:13;;;;;;;47.90;7.38;;;3.70;99.90;;;;;;5048308;28;20033;-62
2022/02/26 03:50:39;;;;;;;56.47;7.05;;;3.70;99.90;;;;;;5046967;28;20380;-63
2022/02/26 03:53:05;;;;;;;56.78;8.65;;;3.70;99.90;;;;;;5030943;28;20025;-62
2022/02/26 03:55:30;;;;;;;53.13;7.70;;;3.60;99.90;;;;;;5047162;28;20031;-61
2022/02/26 03:57:56;;;;;;;77.15;8.82;;;3.70;99.90;;;;;;5048928;28;20033;-61
2022/02/26 04:00:21;;;;;;;78.90;9.60;;;3.60;99.90;;;;;;5047465;28;20086;-61
2022/02/26 04:02:47;;;;;;;67.18;8.20;;;3.60;99.90;;;;;;5040715;28;20037;-59
2022/02/26 04:05:13;;;;;;;59.38;9.05;;;3.60;99.90;;;;;;5047628;28;20021;-59
2022/02/26 04:07:40;;;;;;;63.33;9.10;;;3.60;99.90;;;;;;5045622;28;20536;-59
2022/02/26 04:10:07;;;;;;;59.88;9.35;;;3.50;99.90;;;;;;5044040;28;20124;-59
2022/02/26 04:12:32;;;;;;;62.95;8.93;;;3.50;99.90;;;;;;5044594;28;20060;-60
2022/02/26 04:14:58;;;;;;;78.78;7.95;;;3.50;99.90;;;;;;5043762;28;20064;-61
2022/02/26 04:17:23;;;;;;;70.43;9.88;;;3.50;99.90;;;;;;5043873;28;20479;-60
2022/02/26 04:19:49;;;;;;;68.55;10.15;;;3.50;99.90;;;;;;5047488;28;20118;-62
2022/02/26 04:22:15;;;;;;;53.28;8.05;;;3.50;99.90;;;;;;5049318;28;20475;-62
2022/02/26 04:24:40;;;;;;;76.40;7.40;;;3.50;99.90;;;;;;5050156;28;20555;-62
2022/02/26 04:27:06;;;;;;;70.00;8.23;;;3.50;99.90;;;;;;5052280;28;20029;-62
2022/02/26 04:29:31;;;;;;;57.42;7.75;;;3.50;99.90;;;;;;5051490;28;20494;-62
2022/02/26 04:31:57;;;;;;;65.88;8.55;;;3.40;99.90;;;;;;5034736;28;20028;-62
2022/02/26 04:34:23;;;;;;;56.92;7.03;;;3.40;99.90;;;;;;5051949;28;20406;-62
2022/02/26 04:36:49;;;;;;;68.80;8.88;;;3.40;99.90;;;;;;5051767;28;20043;-62
2022/02/26 04:39:14;;;;;;;77.38;8.65;;;3.40;99.90;;;;;;5051740;28;20038;-61
2022/02/26 04:41:40;;;;;;;53.50;7.28;;;3.40;99.90;;;;;;5051878;28;20025;-62
2022/02/26 04:44:06;;;;;;;59.15;9.65;;;3.40;99.90;;;;;;5050483;28;20359;-62
2022/02/26 04:46:31;;;;;;;74.70;9.23;;;3.40;99.90;;;;;;5051315;28;20376;-62
2022/02/26 04:48:57;;;;;;;53.63;7.35;;;3.30;99.90;;;;;;5051655;28;20050;-60
2022/02/26 04:51:23;;;;;;;58.15;8.25;;;3.30;99.90;;;;;;5051624;28;20041;-61
2022/02/26 04:53:48;;;;;;;76.85;8.60;;;3.20;99.90;;;;;;5050541;28;20122;-61
2022/02/26 04:56:14;;;;;;;65.47;9.00;;;3.20;99.90;;;;;;5050572;28;20171;-61
2022/02/26 04:58:40;;;;;;;70.95;7.55;;;3.20;99.90;;;;;;5050436;28;20493;-60
2022/02/26 05:01:06;;;;;;;57.85;8.27;;;3.20;99.90;;;;;;5047660;28;20025;-58
2022/02/26 05:03:32;;;;;;;65.82;7.28;;;3.10;99.90;;;;;;5050057;28;20029;-59
2022/02/26 05:05:58;;;;;;;56.72;8.13;;;3.10;99.90;;;;;;5051533;28;20098;-58
2022/02/26 05:08:23;;;;;;;60.38;8.88;;;3.10;99.90;;;;;;5051032;28;20037;-59
2022/02/26 05:10:49;;;;;;;41.55;7.05;;;3.10;99.90;;;;;;5051360;28;20037;-61
2022/02/26 05:13:15;;;;;;;79.10;9.25;;;3.10;99.90;;;;;;5050062;28;20033;-61
2022/02/26 05:15:40;;;;;;;57.17;8.43;;;3.10;99.90;;;;;;5051038;28;20116;-61
2022/02/26 05:18:07;;;;;;;61.85;8.02;;;3.10;99.90;;;;;;5051185;28;20572;-61
2022/02/26 05:20:32;;;;;;;50.67;8.52;;;3.10;99.90;;;;;;5051541;28;20032;-62
2022/02/26 05:22:58;;;;;;;77.07;9.20;;;3.10;99.90;;;;;;5042577;28;20394;-62
2022/02/26 05:25:24;;;;;;;63.22;8.25;;;3.10;99.90;;;;;;5041064;28;20121;-61
2022/02/26 05:27:49;;;;;;;79.57;7.90;;;3.10;99.90;;;;;;5050285;28;20029;-60
2022/02/26 05:30:16;;;;;;;54.92;8.73;;;3.10;99.90;;;;;;5051903;28;20048;-59
2022/02/26 05:32:42;;;;;;;45.55;7.28;;;3.10;99.90;;;;;;5031895;28;20068;-61
2022/02/26 05:35:08;;;;;;;56.33;7.47;;;3.10;99.90;;;;;;5045483;28;20499;-58
2022/02/26 05:37:34;;;;;;;57.80;7.78;;;3.00;99.90;;;;;;5049195;28;20040;-58
2022/02/26 05:39:59;;;;;;;69.68;8.25;;;3.00;99.90;;;;;;5042906;28;20367;-60
2022/02/26 05:42:25;;;;;;;52.25;9.35;;;3.00;99.90;;;;;;5050476;28;20055;-59
2022/02/26 05:44:51;;;;;;;60.75;8.10;;;3.00;99.90;;;;;;5049696;28;20458;-59
2022/02/26 05:47:17;;;;;;;65.07;7.22;;;2.90;99.90;;;;;;5050116;28;20028;-59
2022/02/26 05:49:42;;;;;;;80.65;9.27;;;2.90;99.90;;;;;;5050017;28;20057;-58
2022/02/26 05:52:08;;;;;;;76.10;9.05;;;2.90;99.90;;;;;;5047823;28;20045;-61
2022/02/26 05:54:35;;;;;;;54.13;7.55;;;2.90;99.90;;;;;;5049373;28;20100;-59
2022/02/26 05:57:02;;;;;;;60.58;7.30;;;2.90;99.90;;;;;;5050736;28;20033;-61
2022/02/26 05:59:27;;;;;;;55.60;8.90;;;2.90;99.90;;;;;;5050042;28;20367;-59
2022/02/26 06:01:53;;;;;;;52.13;8.60;;;2.90;99.90;;;;;;5050588;28;20036;-58
2022/02/26 06:04:18;;;;;;;61.03;9.15;;;2.90;99.90;;;;;;5050179;28;20032;-60
2022/02/26 06:06:44;;;;;;;67.97;8.63;;;2.90;99.90;;;;;;5049898;28;20025;-59
2022/02/26 06:09:10;;;;;;;57.72;8.40;;;2.90;99.90;;;;;;5049919;28;20509;-58
2022/02/26 06:11:35;;;;;;;81.15;9.82;;;2.90;99.90;;;;;;5051177;28;20025;-59
2022/02/26 06:14:01;;;;;;;51.60;7.82;;;2.80;99.90;;;;;;5051077;28;20033;-63
2022/02/26 06:16:26;;;;;;;65.03;8.82;;;2.90;99.90;;;;;;5050326;28;20033;-63
2022/02/26 06:18:52;;;;;;;59.10;7.68;;;2.90;99.90;;;;;;5048743;28;20040;-64
2022/02/26 06:21:17;;;;;;;70.35;9.10;;;2.90;99.90;;;;;;5050846;28;20099;-64
2022/02/26 06:23:45;;;;;;;75.45;8.88;;;2.90;99.90;;;;;;5049498;28;20059;-64
2022/02/26 06:26:11;;;;;;;56.67;7.72;;;2.90;99.90;;;;;;5050349;28;20053;-60
2022/02/26 06:28:36;;;;;;;71.78;7.93;;;2.90;99.90;;;;;;5049439;28;20471;-60
2022/02/26 06:31:02;;;;;;;72.38;9.38;;;2.90;99.90;;;;;;5050489;28;20021;-60
2022/02/26 06:33:28;;;;;;;59.05;8.32;;;2.90;99.90;;;;;;5050027;28;20036;-60
2022/02/26 06:35:53;;;;;;;64.97;8.15;;;2.90;99.90;;;;;;5049279;28;20052;-58
2022/02/26 06:38:19;;;;;;;56.13;7.80;;;2.90;99.90;;;;;;5049972;28;20025;-63
2022/02/26 06:40:45;;;;;;;55.00;7.95;;;2.90;99.90;;;;;;5039224;28;20036;-62
2022/02/26 06:43:10;;;;;;;68.28;9.05;;;2.90;99.90;;;;;;5047226;28;20198;-60
2022/02/26 06:45:36;;;;;;;59.88;9.00;;;2.90;99.90;;;;;;5048376;28;20032;-60
2022/02/26 06:48:02;;;;;;;71.97;7.35;;;2.90;99.90;;;;;;5029695;28;20061;-59
2022/02/26 06:50:27;;;;;;;67.70;8.30;;;2.90;99.90;;;;;;5045995;28;20017;-60
2022/02/26 06:52:53;;;;;;;74.72;7.90;;;2.90;99.90;;;;;;5049616;28;20094;-63
2022/02/26 06:55:19;;;;;;;65.53;8.77;;;3.00;99.90;;;;;;5042734;28;20102;-63
2022/02/26 06:57:45;;;;;;;49.05;6.97;;;3.00;99.90;;;;;;5047424;28;20025;-64
2022/02/26 07:00:11;;;;;;;56.00;7.72;;;3.00;99.90;;;;;;5046643;28;20032;-62
2022/02/26 07:02:37;;;;;;;59.10;8.15;;;3.00;99.90;;;;;;5039766;28;20440;-60
2022/02/26 07:05:04;;;;;;;70.25;9.23;;;3.10;99.90;;;;;;5049129;28;20351;-62
2022/02/26 07:07:29;;;;;;;64.97;8.60;;;3.10;99.90;;;;;;5041447;28;20047;-60
2022/02/26 07:09:55;;;;;;;65.95;9.25;;;3.10;99.90;;;;;;5031644;28;20516;-59
2022/02/26 07:12:21;;;;;;;48.05;7.53;;;3.20;99.90;;;;;;5041613;28;20380;-60
2022/02/26 07:14:46;;;;;;;74.72;8.60;;;3.20;99.90;;;;;;5044699;28;20525;-59
2022/02/26 07:17:12;;;;;;;58.42;8.10;;;3.30;99.90;;;;;;5041359;28;20029;-60
2022/02/26 07:19:38;;;;;;;54.38;6.65;;;3.30;99.90;;;;;;5040786;28;20032;-58
2022/02/26 07:22:04;;;;;;;55.05;7.55;;;3.30;99.90;;;;;;5048412;28;20082;-60
2022/02/26 07:24:30;;;;;;;50.95;7.70;;;3.30;99.90;;;;;;5049103;28;20490;-60
2022/02/26 07:26:56;;;;;;;42.42;7.03;;;3.40;99.90;;;;;;5049042;28;20092;-59
2022/02/26 07:29:21;;;;;;;46.92;6.68;;;3.40;99.90;;;;;;5040473;28;20060;-59
2022/02/26 07:31:47;;;;;;;59.08;8.45;;;3.40;99.90;;;;;;5049342;28;20037;-61
2022/02/26 07:34:13;;;;;;;65.53;8.35;;;3.50;99.90;;;;;;5044932;28;20037;-59
2022/02/26 07:36:39;;;;;;;54.65;8.20;;;3.50;99.90;;;;;;5030285;28;20043;-58
2022/02/26 07:39:06;;;;;;;66.93;8.13;;;3.60;99.90;;;;;;5043875;28;20021;-63
2022/02/26 07:41:32;;;;;;;61.45;8.05;;;3.60;99.90;;;;;;5045130;28;20017;-62
2022/02/26 07:43:57;;;;;;;47.10;6.85;;;3.60;99.90;;;;;;5048268;28;20121;-59
2022/02/26 07:46:23;;;;;;;58.03;8.38;;;3.70;99.90;;;;;;5049071;28;20112;-59
2022/02/26 07:48:49;;;;;;;49.22;6.90;;;3.70;99.90;;;;;;5048090;28;20117;-58
2022/02/26 07:51:15;;;;;;;49.60;7.65;;;3.80;99.90;;;;;;5048518;28;20039;-61
2022/02/26 07:53:40;;;;;;;58.40;8.23;;;3.80;99.90;;;;;;5030727;28;20117;-61
2022/02/26 07:56:06;;;;;;;59.13;7.38;;;3.90;99.90;;;;;;5043720;28;20032;-59
2022/02/26 07:58:32;;;;;;;61.83;7.80;;;3.90;99.90;;;;;;5044194;28;20095;-62
2022/02/26 08:00:57;;;;;;;51.97;7.30;;;3.90;99.90;;;;;;5034417;28;20081;-62
2022/02/26 08:03:23;;;;;;;44.15;7.07;;;4.00;99.90;;;;;;5053411;28;20021;-62
2022/02/26 08:05:49;;;;;;;60.15;8.93;;;4.00;99.90;;;;;;5051182;28;20037;-58
2022/02/26 08:08:15;;;;;;;51.15;8.00;;;4.10;99.90;;;;;;5051005;28;20186;-63
2022/02/26 08:10:40;;;;;;;57.22;7.00;;;4.20;99.90;;;;;;5044385;28;20048;-60
2022/02/26 08:13:06;;;;;;;64.30;7.68;;;4.30;99.90;;;;;;5052363;28;20376;-59
2022/02/26 08:15:32;;;;;;;59.90;8.05;;;4.30;99.90;;;;;;5050153;28;20025;-60
2022/02/26 08:17:57;;;;;;;63.15;8.00;;;4.40;99.90;;;;;;5048951;28;20044;-60
2022/02/26 08:20:24;;;;;;;55.72;8.32;;;4.30;99.90;;;;;;5051818;28;20021;-62
2022/02/26 08:22:54;;;;;;;60.08;7.13;;;4.40;99.90;;;;;;5051367;28;20037;-61
2022/02/26 08:25:20;;;;;;;45.08;7.85;;;4.50;99.90;;;;;;5045714;28;20032;-61
2022/02/26 08:27:45;;;;;;;49.42;6.80;;;4.50;99.90;;;;;;5051854;28;20065;-62
2022/02/26 08:30:13;;;;;;;53.35;6.50;;;4.60;99.90;;;;;;5051784;28;20047;-60
2022/02/26 08:32:39;;;;;;;39.78;5.70;;;4.60;99.90;;;;;;5052089;28;20119;-62
2022/02/26 08:35:06;;;;;;;59.50;7.57;;;4.60;99.90;;;;;;5049934;28;20319;-61
2022/02/26 08:37:33;;;;;;;56.97;7.50;;;4.70;99.90;;;;;;5052735;28;20025;-63
2022/02/26 08:39:59;;;;;;;49.03;6.75;;;4.70;99.90;;;;;;5051739;28;20037;-62
2022/02/26 08:42:25;;;;;;;42.20;6.88;;;4.80;99.90;;;;;;5052807;28;20075;-62
2022/02/26 08:44:53;;;;;;;52.22;7.35;;;4.90;99.90;;;;;;5050787;28;20033;-62
2022/02/26 08:47:19;;;;;;;58.17;8.85;;;4.90;99.90;;;;;;5052118;28;20482;-59
2022/02/26 08:49:45;;;;;;;55.53;7.70;;;5.00;99.90;;;;;;5049404;28;20064;-59
2022/02/26 08:52:11;;;;;;;40.85;7.05;;;5.00;99.90;;;;;;5045302;28;20483;-62
2022/02/26 08:54:36;;;;;;;45.70;6.80;;;5.10;99.90;;;;;;5050678;28;20115;-61
2022/02/26 08:57:02;;;;;;;48.35;6.53;;;5.20;99.90;;;;;;5051874;28;20104;-61
2022/02/26 08:59:29;;;;;;;49.88;7.35;;;5.20;99.90;;;;;;5052585;28;20029;-60
2022/02/26 09:01:55;;;;;;;52.45;7.70;;;5.30;99.90;;;;;;5052209;28;20025;-64
2022/02/26 09:04:20;;;;;;;57.83;7.75;;;5.40;99.90;;;;;;5051461;28;20029;-60
2022/02/26 09:06:46;;;;;;;60.47;7.72;;;5.40;99.90;;;;;;5051342;28;20060;-61
2022/02/26 09:09:12;;;;;;;44.30;6.00;;;5.50;99.90;;;;;;5033994;28;20032;-60
2022/02/26 09:11:38;;;;;;;47.92;6.95;;;5.50;99.90;;;;;;5051630;28;20033;-62
2022/02/26 09:14:05;;;;;;;43.17;6.43;;;5.50;99.90;;;;;;5050728;28;20397;-62
2022/02/26 09:16:32;;;;;;;42.50;6.57;;;5.60;99.90;;;;;;5051503;28;20029;-62
2022/02/26 09:18:57;;;;;;;35.63;7.20;;;5.60;99.90;;;;;;5033352;28;20040;-61
2022/02/26 09:21:24;;;;;;;58.63;7.18;;;5.70;99.90;;;;;;5049900;28;20482;-63
2022/02/26 09:23:50;;;;;;;33.15;6.35;;;5.90;99.90;;;;;;5048778;28;20032;-63
2022/02/26 09:26:15;;;;;;;44.13;6.85;;;5.90;99.90;;;;;;5050997;28;20029;-63
2022/02/26 09:28:41;;;;;;;47.33;5.88;;;6.00;99.90;;;;;;5031427;28;20032;-64
2022/02/26 09:31:08;;;;;;;42.25;6.28;;;6.10;99.90;;;;;;5041922;28;20028;-63
2022/02/26 09:33:34;;;;;;;44.60;5.97;;;6.10;99.90;;;;;;5049784;28;20460;-64
2022/02/26 09:36:01;;;;;;;40.95;6.30;;;6.10;99.90;;;;;;5050586;28;20114;-64
2022/02/26 09:38:28;;;;;;;39.22;6.88;;;6.20;99.90;;;;;;5029652;28;20164;-63
2022/02/26 09:40:55;;;;;;;37.60;6.10;;;6.30;99.90;;;;;;5044375;28;20033;-63
2022/02/26 09:43:22;;;;;;;34.75;5.97;;;6.40;99.90;;;;;;5042078;28;20048;-58
2022/02/26 09:45:49;;;;;;;43.67;6.60;;;6.50;99.90;;;;;;5047438;28;20029;-60
2022/02/26 09:48:14;;;;;;;33.78;5.80;;;6.60;99.90;;;;;;5043646;28;20028;-54
2022/02/26 09:50:40;;;;;;;29.20;5.78;;;6.70;99.90;;;;;;5039236;28;20128;-57
2022/02/26 09:53:08;;;;;;;26.15;5.00;;;6.80;99.90;;;;;;5042499;28;20034;-54
2022/02/26 09:55:35;;;;;;;37.38;5.25;;;6.90;99.90;;;;;;5037227;28;20357;-51
2022/02/26 09:58:01;;;;;;;27.33;4.90;;;6.90;99.90;;;;;;5050311;28;20088;-56
2022/02/26 10:00:26;;;;;;;33.28;5.93;;;7.10;99.90;;;;;;5042146;28;20120;-61
2022/02/26 10:02:52;;;;;;;33.33;5.32;;;7.20;99.90;;;;;;5049423;28;20140;-60
2022/02/26 10:05:18;;;;;;;25.75;4.50;;;7.20;99.90;;;;;;5050499;28;20071;-57
2022/02/26 10:07:47;;;;;;;27.25;4.88;;;7.40;99.90;;;;;;5031256;28;20110;-55
2022/02/26 10:10:27;;;;;;;27.95;4.95;;;7.40;99.90;;;;;;5038884;28;20401;-57
2022/02/26 10:12:58;;;;;;;21.60;4.00;;;7.50;99.90;;;;;;5046310;28;20037;-59
2022/02/26 10:15:29;;;;;;;24.17;4.25;;;7.60;99.90;;;;;;5044358;28;20391;-55
2022/02/26 10:18:11;;;;;;;24.92;4.85;;;7.60;99.90;;;;;;5046611;28;20045;-54
2022/02/26 10:20:54;;;;;;;26.08;5.05;;;7.60;99.90;;;;;;5038410;28;20029;-56
2022/02/26 10:23:21;;;;;;;21.50;3.53;;;7.80;99.90;;;;;;5043789;28;20037;-58
2022/02/26 10:25:47;;;;;;;19.85;3.60;;;7.90;99.90;;;;;;5039708;28;20028;-56
2022/02/26 10:28:14;;;;;;;26.63;3.90;;;8.10;99.90;;;;;;5047888;28;20078;-53
2022/02/26 10:30:41;;;;;;;19.98;3.38;;;8.20;99.90;;;;;;5042623;28;20037;-49
2022/02/26 10:33:13;;;;;;;23.05;4.15;;;8.50;99.90;;;;;;5048359;28;20086;-50
2022/02/26 10:35:48;;;;;;;22.38;3.78;;;8.50;99.90;;;;;;5047080;28;20031;-55
2022/02/26 10:38:14;;;;;;;24.05;3.97;;;8.60;99.90;;;;;;5043777;28;20091;-51
2022/02/26 10:40:50;;;;;;;29.83;4.32;;;8.80;99.90;;;;;;5040423;28;20033;-57
2022/02/26 10:43:38;;;;;;;20.98;3.72;;;8.90;99.90;;;;;;5050157;28;20052;-56
2022/02/26 10:46:22;;;;;;;16.30;3.10;;;8.90;99.90;;;;;;5047848;28;20052;-57
2022/02/26 10:48:52;;;;;;;21.40;3.30;;;8.90;99.90;;;;;;5049914;28;20021;-55
2022/02/26 10:51:24;;;;;;;14.85;3.25;;;8.90;99.90;;;;;;5043076;28;20032;-52
2022/02/26 10:53:50;;;;;;;21.90;3.72;;;9.00;99.90;;;;;;5048765;28;20346;-55
2022/02/26 10:56:16;;;;;;;15.45;3.42;;;9.00;99.90;;;;;;5047933;28;20087;-54
2022/02/26 10:58:42;;;;;;;16.98;3.08;;;9.20;99.90;;;;;;5048058;28;20421;-61
2022/02/26 11:01:11;;;;;;;15.07;2.60;;;9.20;99.90;;;;;;5050052;28;20025;-59
2022/02/26 11:03:37;;;;;;;13.13;2.55;;;9.20;99.90;;;;;;5030360;28;20441;-61
2022/02/26 11:06:06;;;;;;;22.52;4.13;;;9.30;99.90;;;;;;5043270;28;20060;-61
2022/02/26 11:08:31;;;;;;;20.80;3.67;;;9.40;99.90;;;;;;5038320;28;20030;-61
2022/02/26 11:10:59;;;;;;;14.77;3.22;;;9.40;99.90;;;;;;5029038;28;20420;-60
2022/02/26 11:13:25;;;;;;;18.52;2.65;;;9.40;99.90;;;;;;5040183;28;20109;-56
2022/02/26 11:15:55;;;;;;;16.23;3.95;;;9.50;99.90;;;;;;5043284;28;20036;-57
2022/02/26 11:18:25;;;;;;;16.58;3.05;;;9.50;99.90;;;;;;5048794;28;20087;-59
2022/02/26 11:20:51;;;;;;;24.60;3.65;;;9.60;99.90;;;;;;5048208;28;20055;-59
2022/02/26 11:23:17;;;;;;;20.15;2.92;;;9.70;99.90;;;;;;5045681;28;20025;-58
2022/02/26 11:25:45;;;;;;;16.05;3.63;;;9.70;99.90;;;;;;5047069;28;20375;-60
2022/02/26 11:28:13;;;;;;;15.98;2.53;;;9.80;99.90;;;;;;5048914;28;20025;-60
2022/02/26 11:30:57;;;;;;;18.33;3.50;;;9.80;99.90;;;;;;5044557;28;20032;-58
2022/02/26 11:33:23;;;;;;;17.40;3.03;;;9.90;99.90;;;;;;5042420;28;20112;-57
2022/02/26 11:35:54;;;;;;;16.42;3.75;;;10.10;99.90;;;;;;5046767;28;20151;-60
2022/02/26 11:38:22;;;;;;;14.50;2.97;;;10.20;99.90;;;;;;5047816;28;20041;-57
2022/02/26 11:40:49;;;;;;;17.88;2.67;;;10.20;99.90;;;;;;5047277;28;20480;-59
2022/02/26 11:43:37;;;;;;;16.27;2.28;;;10.20;99.90;;;;;;5048078;28;20522;-59
2022/02/26 11:46:28;;;;;;;14.52;2.97;;;10.30;99.90;;;;;;5021450;28;20421;-59
2022/02/26 11:48:58;;;;;;;20.63;3.20;;;10.30;99.90;;;;;;5045188;28;20127;-57
2022/02/26 11:51:34;;;;;;;16.65;2.97;;;10.40;99.90;;;;;;5044097;28;20297;-57
2022/02/26 11:54:00;;;;;;;14.00;2.60;;;10.40;99.90;;;;;;5046882;28;20071;-59
2022/02/26 11:56:40;;;;;;;18.15;3.60;;;10.60;99.90;;;;;;5048308;28;20491;-58
2022/02/26 11:59:06;;;;;;;16.95;2.60;;;10.80;99.90;;;;;;5044044;28;20582;-59
2022/02/26 12:01:31;;;;;;;19.27;2.83;;;11.00;99.90;;;;;;5042831;28;20125;-60
2022/02/26 12:03:58;;;;;;;7.22;2.10;;;11.30;99.90;;;;;;5046878;28;20380;-61
2022/02/26 12:06:29;;;;;;;12.57;2.38;;;11.80;99.90;;;;;;5046290;28;20359;-62
2022/02/26 12:09:09;;;;;;;13.23;2.50;;;12.90;99.90;;;;;;5045023;28;20037;-61
2022/02/26 12:11:46;;;;;;;14.70;2.65;;;14.10;95.80;;;;;;5036147;28;20049;-62
2022/02/26 12:14:22;;;;;;;11.35;2.45;;;14.90;93.30;;;;;;5044795;28;20104;-63
2022/02/26 12:16:56;;;;;;;12.55;2.60;;;15.50;85.30;;;;;;5046937;28;20124;-62
2022/02/26 12:19:25;;;;;;;12.70;2.70;;;16.00;79.10;;;;;;5047481;28;20041;-63
2022/02/26 12:21:57;;;;;;;9.77;2.55;;;16.60;72.70;;;;;;5027581;28;20105;-60
2022/02/26 12:24:29;;;;;;;11.70;2.67;;;16.60;69.90;;;;;;5027184;28;20100;-61
2022/02/26 12:26:57;;;;;;;14.60;2.70;;;16.90;70.20;;;;;;5027580;28;20333;-65
2022/02/26 12:29:30;;;;;;;10.80;2.60;;;17.00;71.10;;;;;;5028591;28;20510;-61
2022/02/26 12:32:07;;;;;;;11.77;2.72;;;17.40;68.80;;;;;;5028798;28;20029;-64
2022/02/26 12:34:58;;;;;;;8.60;2.40;;;17.70;65.10;;;;;;5028395;28;20329;-64
2022/02/26 12:37:35;;;;;;;6.35;1.88;;;17.80;61.80;;;;;;5028834;28;20425;-62
2022/02/26 12:40:19;;;;;;;11.35;2.40;;;18.10;61.60;;;;;;5028587;28;20029;-62
2022/02/26 12:42:47;;;;;;;6.43;1.80;;;18.70;60.90;;;;;;5028926;28;20021;-62
2022/02/26 12:45:15;;;;;;;9.25;2.42;;;18.90;56.70;;;;;;5029610;28;20044;-62